Time;durP1;ratioP1;P1;durP2;ratioP2;P2;SDS_P1;SDS_P2;PMS_P1;PMS_P2;Temp;Humidity;BMP_temperature;BMP_pressure;BME280_temperature;BME280_humidity;BME280_pressure;Samples;Min_cycle;Max_cycle;Signal;HPM_P1;HPM_P2
2022/09/30 00:01:45;;;;;;;2.20;0.70;;;16.70;99.90;;;;;;5058438;28;20495;-73
2022/09/30 00:04:17;;;;;;;2.90;0.52;;;16.70;99.90;;;;;;5056644;28;20031;-73
2022/09/30 00:06:43;;;;;;;2.65;0.30;;;16.80;99.90;;;;;;5062780;28;20057;-73
2022/09/30 00:09:11;;;;;;;1.67;0.30;;;16.80;99.90;;;;;;5074943;28;20075;-73
2022/09/30 00:11:38;;;;;;;2.25;0.40;;;16.80;99.90;;;;;;5061468;28;20028;-73
2022/09/30 00:14:05;;;;;;;2.63;0.90;;;16.80;99.90;;;;;;5057202;28;20033;-74
2022/09/30 00:16:35;;;;;;;1.52;0.38;;;16.80;99.90;;;;;;5060859;28;20487;-73
2022/09/30 00:19:04;;;;;;;1.65;0.40;;;16.80;99.90;;;;;;5059231;28;20032;-73
2022/09/30 00:21:34;;;;;;;3.15;0.50;;;16.80;99.90;;;;;;5058498;28;20029;-72
2022/09/30 00:24:01;;;;;;;2.13;0.50;;;16.80;99.90;;;;;;5057533;28;20033;-73
2022/09/30 00:26:28;;;;;;;2.53;0.30;;;16.80;99.90;;;;;;5056981;28;20366;-74
2022/09/30 00:28:57;;;;;;;0.80;0.20;;;16.80;99.90;;;;;;5066534;28;20037;-74
2022/09/30 00:31:25;;;;;;;0.70;0.20;;;16.80;99.90;;;;;;5059115;28;20254;-73
2022/09/30 00:36:51;;;;;;;1.70;0.40;;;16.80;99.90;;;;;;5032949;28;20132;-74
2022/09/30 00:39:24;;;;;;;1.55;0.40;;;16.80;99.90;;;;;;5037861;28;20400;-74
2022/09/30 00:41:56;;;;;;;1.35;0.40;;;16.80;99.90;;;;;;5035348;28;20596;-73
2022/09/30 00:44:45;;;;;;;0.80;0.30;;;16.80;99.90;;;;;;5051308;28;20458;-73
2022/09/30 00:47:39;;;;;;;2.92;0.40;;;16.70;99.90;;;;;;5039416;28;20056;-73
2022/09/30 00:50:26;;;;;;;2.75;0.43;;;16.60;99.90;;;;;;5061886;28;20048;-73
2022/09/30 00:53:01;;;;;;;1.98;0.50;;;16.60;99.90;;;;;;5055004;28;20052;-73
2022/09/30 00:56:08;;;;;;;1.52;0.60;;;16.60;99.90;;;;;;5051516;28;20096;-74
2022/09/30 00:58:51;;;;;;;1.00;0.40;;;16.50;99.90;;;;;;4998313;28;20034;-73
2022/09/30 01:01:18;;;;;;;1.95;0.40;;;16.50;99.90;;;;;;5049785;28;20040;-73
2022/09/30 01:03:45;;;;;;;;;;;16.50;99.90;;;;;;5063365;28;20120;-73
2022/09/30 01:06:11;;;;;;;2.28;0.43;;;16.50;99.90;;;;;;5056066;28;19924;-73
2022/09/30 01:08:39;;;;;;;1.00;0.38;;;16.50;99.90;;;;;;5071923;28;20467;-73
2022/09/30 01:11:05;;;;;;;3.40;0.43;;;16.50;99.90;;;;;;5058499;28;20040;-74
2022/09/30 01:13:32;;;;;;;2.45;0.30;;;16.50;99.90;;;;;;5049748;28;20467;-73
2022/09/30 01:16:11;;;;;;;1.88;0.30;;;16.50;99.90;;;;;;5069676;28;20040;-73
2022/09/30 01:18:49;;;;;;;2.42;0.40;;;16.50;99.90;;;;;;5039899;28;20041;-73
2022/09/30 01:21:39;;;;;;;1.38;0.35;;;16.40;99.90;;;;;;5055576;28;20048;-73
2022/09/30 01:24:22;;;;;;;1.63;0.50;;;16.50;99.90;;;;;;5056277;28;20043;-73
2022/09/30 01:27:04;;;;;;;1.38;0.40;;;16.50;99.90;;;;;;5057343;28;20115;-73
2022/09/30 01:30:09;;;;;;;1.73;0.60;;;16.40;99.90;;;;;;5037180;28;20039;-73
2022/09/30 01:32:59;;;;;;;1.38;0.28;;;16.40;99.90;;;;;;5038123;28;20743;-74
2022/09/30 01:35:43;;;;;;;2.20;0.30;;;16.40;99.90;;;;;;5049853;28;21049;-73
2022/09/30 01:38:27;;;;;;;3.63;0.40;;;16.40;99.90;;;;;;5050504;28;20041;-73
2022/09/30 01:41:07;;;;;;;2.95;0.35;;;16.30;99.90;;;;;;5037396;28;20037;-73
2022/09/30 01:43:55;;;;;;;1.30;0.20;;;16.30;99.90;;;;;;5050250;28;20059;-73
2022/09/30 01:46:28;;;;;;;1.42;0.40;;;16.20;99.90;;;;;;5044915;28;20036;-73
2022/09/30 01:49:12;;;;;;;0.60;0.22;;;16.20;99.90;;;;;;5038219;28;20045;-73
2022/09/30 01:51:53;;;;;;;1.27;0.20;;;16.20;99.90;;;;;;5056346;28;20036;-73
2022/09/30 01:54:31;;;;;;;0.70;0.20;;;16.10;99.90;;;;;;5055255;28;20037;-73
2022/09/30 01:57:29;;;;;;;0.55;0.20;;;16.10;99.90;;;;;;5058310;28;20111;-72
2022/09/30 02:00:08;;;;;;;1.77;0.30;;;16.10;99.90;;;;;;5039837;28;20086;-73
2022/09/30 02:02:43;;;;;;;;;;;16.00;99.90;;;;;;5041664;28;20073;-74
2022/09/30 02:05:49;;;;;;;1.13;0.38;;;16.00;99.90;;;;;;5052091;28;19926;-73
2022/09/30 02:08:22;;;;;;;1.08;0.45;;;15.90;99.90;;;;;;5033493;28;20039;-73
2022/09/30 02:11:12;;;;;;;0.77;0.20;;;15.90;99.90;;;;;;5051552;28;20519;-74
2022/09/30 02:13:55;;;;;;;1.50;0.32;;;15.90;99.90;;;;;;5039434;28;20034;-73
2022/09/30 02:16:42;;;;;;;0.98;0.30;;;15.80;99.90;;;;;;5038843;28;20036;-73
2022/09/30 02:19:23;;;;;;;0.73;0.17;;;15.80;99.90;;;;;;5042276;28;20071;-74
2022/09/30 02:21:57;;;;;;;0.82;0.20;;;15.80;99.90;;;;;;5058519;28;20070;-73
2022/09/30 02:24:26;;;;;;;1.00;0.30;;;15.80;99.90;;;;;;5056631;28;20136;-73
2022/09/30 02:26:56;;;;;;;1.33;0.38;;;15.80;99.90;;;;;;5061600;28;20032;-73
2022/09/30 02:29:27;;;;;;;3.70;0.70;;;15.80;99.90;;;;;;5065859;28;20063;-74
2022/09/30 02:31:58;;;;;;;1.33;0.40;;;15.70;99.90;;;;;;5061541;28;20093;-73
2022/09/30 02:34:41;;;;;;;2.45;0.35;;;15.70;99.90;;;;;;5063528;28;20051;-73
2022/09/30 02:37:33;;;;;;;1.58;0.40;;;15.60;99.90;;;;;;5060339;28;20037;-73
2022/09/30 02:40:25;;;;;;;1.00;0.30;;;15.60;99.90;;;;;;5052904;28;20041;-73
2022/09/30 02:42:51;;;;;;;1.75;0.43;;;15.60;99.90;;;;;;5058396;28;20088;-73
2022/09/30 02:45:21;;;;;;;1.25;0.47;;;15.60;99.90;;;;;;5061882;28;20128;-74
2022/09/30 02:48:01;;;;;;;1.55;0.50;;;15.50;99.90;;;;;;5061644;28;20036;-73
2022/09/30 02:50:53;;;;;;;2.25;0.40;;;15.50;99.90;;;;;;5060338;28;20112;-73
2022/09/30 02:53:38;;;;;;;1.58;0.43;;;15.50;99.90;;;;;;5058334;28;20038;-74
2022/09/30 02:56:18;;;;;;;1.00;0.32;;;15.50;99.90;;;;;;5059366;28;20025;-73
2022/09/30 02:58:48;;;;;;;1.65;0.38;;;15.50;99.90;;;;;;5061141;28;20101;-73
2022/09/30 03:01:15;;;;;;;2.78;0.38;;;15.50;99.90;;;;;;5064914;28;20037;-72
2022/09/30 03:03:52;;;;;;;2.35;0.50;;;15.50;99.90;;;;;;5066353;28;20043;-73
2022/09/30 03:06:22;;;;;;;1.23;0.20;;;15.60;99.90;;;;;;5060696;28;20047;-73
2022/09/30 03:08:48;;;;;;;1.02;0.28;;;15.60;99.90;;;;;;5059889;28;20472;-73
2022/09/30 03:11:17;;;;;;;0.73;0.30;;;15.70;99.90;;;;;;5060040;28;20086;-73
2022/09/30 03:14:17;;;;;;;0.90;0.50;;;15.60;99.90;;;;;;5063870;28;20032;-73
2022/09/30 03:17:28;;;;;;;1.58;0.40;;;15.60;99.90;;;;;;5039019;28;20498;-73
2022/09/30 03:20:05;;;;;;;1.83;0.52;;;15.50;99.90;;;;;;5060001;28;20101;-74
2022/09/30 03:22:37;;;;;;;0.63;0.32;;;15.40;99.90;;;;;;5041672;28;20025;-72
2022/09/30 03:25:09;;;;;;;1.67;0.35;;;15.40;99.90;;;;;;5049962;28;20048;-72
2022/09/30 03:27:42;;;;;;;1.80;0.57;;;15.30;99.90;;;;;;5053033;28;20127;-73
2022/09/30 03:30:15;;;;;;;1.58;0.50;;;15.20;99.90;;;;;;5060849;28;20036;-73
2022/09/30 03:33:08;;;;;;;1.90;0.50;;;15.20;99.90;;;;;;5056780;28;20029;-73
2022/09/30 03:36:05;;;;;;;1.48;0.40;;;15.10;99.90;;;;;;5052629;28;20029;-73
2022/09/30 03:38:55;;;;;;;2.28;0.40;;;15.10;99.90;;;;;;5013926;28;20034;-73
2022/09/30 03:41:30;;;;;;;3.30;0.43;;;15.20;99.90;;;;;;5059408;28;20043;-73
2022/09/30 03:44:21;;;;;;;8.27;0.63;;;15.10;99.90;;;;;;5057532;28;20091;-73
2022/09/30 03:47:02;;;;;;;1.85;0.50;;;15.10;99.90;;;;;;5038553;28;20049;-72
2022/09/30 03:49:54;;;;;;;0.80;0.30;;;15.00;99.90;;;;;;5057651;28;20130;-74
2022/09/30 03:52:23;;;;;;;1.85;0.47;;;14.90;99.90;;;;;;5058845;28;20465;-73
2022/09/30 03:54:56;;;;;;;2.15;0.50;;;15.00;99.90;;;;;;5064791;28;20040;-72
2022/09/30 03:57:25;;;;;;;1.67;0.30;;;14.90;99.90;;;;;;5055796;28;20297;-72
2022/09/30 03:59:50;;;;;;;1.67;0.60;;;14.90;99.90;;;;;;5038943;28;20124;-73
2022/09/30 04:02:16;;;;;;;1.58;0.40;;;14.90;99.90;;;;;;5038861;28;20072;-73
2022/09/30 04:04:42;;;;;;;3.35;0.80;;;14.90;99.90;;;;;;5041724;28;20368;-74
2022/09/30 04:07:09;;;;;;;2.85;0.60;;;14.90;99.90;;;;;;5024496;28;20041;-73
2022/09/30 04:09:38;;;;;;;1.17;0.38;;;14.90;99.90;;;;;;5037854;28;20051;-73
2022/09/30 04:12:04;;;;;;;2.05;0.60;;;14.90;99.90;;;;;;5045837;28;20049;-73
2022/09/30 04:14:30;;;;;;;1.13;0.43;;;14.80;99.90;;;;;;5041091;28;20516;-73
2022/09/30 04:16:57;;;;;;;2.15;0.43;;;14.80;99.90;;;;;;5044413;28;20029;-73
2022/09/30 04:19:22;;;;;;;1.05;0.40;;;14.80;99.90;;;;;;5040806;28;20056;-73
2022/09/30 04:21:51;;;;;;;2.05;0.43;;;14.80;99.90;;;;;;5043324;28;20036;-72
2022/09/30 04:24:18;;;;;;;1.77;0.38;;;14.70;99.90;;;;;;5047986;28;20029;-73
2022/09/30 04:26:44;;;;;;;2.13;0.40;;;14.70;99.90;;;;;;5074222;28;20502;-73
2022/09/30 04:29:10;;;;;;;2.05;0.40;;;14.70;99.90;;;;;;5055706;28;20025;-73
2022/09/30 04:31:35;;;;;;;1.80;0.40;;;14.60;99.90;;;;;;5056532;28;20566;-73
2022/09/30 04:34:01;;;;;;;1.65;0.30;;;14.60;99.90;;;;;;5058604;28;20072;-73
2022/09/30 04:36:27;;;;;;;1.92;0.50;;;14.60;99.90;;;;;;5051530;28;20408;-74
2022/09/30 04:38:53;;;;;;;1.63;0.50;;;14.60;99.90;;;;;;5042622;28;20515;-73
2022/09/30 04:41:19;;;;;;;1.88;0.80;;;14.60;99.90;;;;;;5061647;28;20028;-73
2022/09/30 04:43:46;;;;;;;1.70;0.40;;;14.60;99.90;;;;;;5060882;28;20029;-74
2022/09/30 04:46:17;;;;;;;2.17;0.30;;;14.70;99.90;;;;;;5045375;28;20033;-73
2022/09/30 04:48:44;;;;;;;1.35;0.40;;;14.70;99.90;;;;;;5051771;28;20123;-73
2022/09/30 04:51:13;;;;;;;;;;;14.70;99.90;;;;;;5039713;28;20059;-74
2022/09/30 04:53:39;;;;;;;2.60;0.40;;;14.70;99.90;;;;;;5046846;28;19917;-73
2022/09/30 04:56:06;;;;;;;0.88;0.35;;;14.70;99.90;;;;;;5076571;28;20137;-73
2022/09/30 04:58:32;;;;;;;1.00;0.35;;;14.80;99.90;;;;;;5069570;28;20047;-73
2022/09/30 05:01:07;;;;;;;2.17;0.63;;;14.80;99.90;;;;;;5074244;28;20044;-73
2022/09/30 05:03:33;;;;;;;2.30;0.65;;;14.80;99.90;;;;;;5039337;28;20029;-73
2022/09/30 05:05:59;;;;;;;1.35;0.40;;;14.80;99.90;;;;;;5045428;28;20045;-74
2022/09/30 05:08:25;;;;;;;1.52;0.40;;;14.80;99.90;;;;;;5041125;28;20033;-74
2022/09/30 05:10:59;;;;;;;1.65;0.38;;;14.90;99.90;;;;;;5045796;28;20043;-73
2022/09/30 05:13:30;;;;;;;1.73;0.50;;;14.90;99.90;;;;;;5039124;28;20064;-74
2022/09/30 05:15:57;;;;;;;1.52;0.40;;;14.90;99.90;;;;;;5071072;28;20067;-74
2022/09/30 05:18:25;;;;;;;1.25;0.30;;;14.80;99.90;;;;;;5056318;28;20045;-73
2022/09/30 05:20:56;;;;;;;1.65;0.30;;;14.90;99.90;;;;;;5057340;28;20037;-73
2022/09/30 05:23:23;;;;;;;1.27;0.40;;;14.90;99.90;;;;;;5054706;28;20090;-74
2022/09/30 05:25:50;;;;;;;1.05;0.30;;;14.90;99.90;;;;;;5060223;28;20036;-73
2022/09/30 05:28:16;;;;;;;1.95;0.40;;;14.90;99.90;;;;;;5066773;28;20051;-74
2022/09/30 05:30:42;;;;;;;2.72;0.70;;;14.80;99.90;;;;;;5064406;28;20087;-74
2022/09/30 05:33:09;;;;;;;1.17;0.38;;;14.80;99.90;;;;;;5056554;28;20040;-74
2022/09/30 05:35:36;;;;;;;2.78;0.47;;;14.80;99.90;;;;;;5071851;28;20071;-73
2022/09/30 05:38:03;;;;;;;3.30;0.50;;;14.80;99.90;;;;;;5055933;28;20060;-74
2022/09/30 05:40:30;;;;;;;1.98;0.60;;;14.80;99.90;;;;;;5046902;28;20037;-74
2022/09/30 05:42:56;;;;;;;;;;;14.80;99.90;;;;;;5037844;28;20025;-73
2022/09/30 05:45:23;;;;;;;1.35;0.40;;;14.70;99.90;;;;;;5073998;28;19920;-74
2022/09/30 05:47:52;;;;;;;4.32;0.60;;;14.70;99.90;;;;;;5063648;28;20567;-73
2022/09/30 05:50:19;;;;;;;1.73;0.40;;;14.80;99.90;;;;;;5055986;28;20041;-74
2022/09/30 05:52:45;;;;;;;2.13;0.50;;;14.70;99.90;;;;;;5061032;28;20052;-74
2022/09/30 05:55:11;;;;;;;2.22;0.50;;;14.70;99.90;;;;;;5055051;28;20048;-76
2022/09/30 05:57:38;;;;;;;3.72;0.57;;;14.80;99.90;;;;;;5057000;28;20136;-73
2022/09/30 06:00:05;;;;;;;2.70;0.40;;;14.80;99.90;;;;;;5056797;28;20060;-74
2022/09/30 06:02:32;;;;;;;1.70;0.47;;;14.80;99.90;;;;;;5056770;28;20516;-74
2022/09/30 06:04:58;;;;;;;4.95;1.65;;;14.90;99.90;;;;;;5064096;28;20055;-74
2022/09/30 06:07:24;;;;;;;2.83;0.45;;;14.90;99.90;;;;;;5059074;28;20033;-73
2022/09/30 06:09:49;;;;;;;3.85;0.47;;;15.00;99.90;;;;;;5061070;28;20428;-73
2022/09/30 06:12:15;;;;;;;3.80;0.50;;;14.90;99.90;;;;;;5058199;28;20873;-74
2022/09/30 06:14:41;;;;;;;1.35;0.30;;;14.90;99.90;;;;;;5056944;28;20127;-74
2022/09/30 06:17:07;;;;;;;0.90;0.30;;;14.90;99.90;;;;;;5059552;28;20495;-73
2022/09/30 06:19:33;;;;;;;1.98;0.30;;;15.00;99.90;;;;;;5061358;28;20493;-73
2022/09/30 06:21:59;;;;;;;1.48;0.40;;;15.10;99.90;;;;;;5059052;28;20057;-73
2022/09/30 06:24:25;;;;;;;2.78;0.77;;;15.10;99.90;;;;;;5053646;28;20033;-73
2022/09/30 06:26:51;;;;;;;2.75;0.50;;;15.20;99.90;;;;;;5055333;28;20040;-74
2022/09/30 06:29:18;;;;;;;1.67;0.40;;;15.20;99.90;;;;;;5055342;28;20086;-74
2022/09/30 06:31:44;;;;;;;;;;;15.20;99.90;;;;;;5059090;28;20028;-73
2022/09/30 06:34:09;;;;;;;1.83;0.55;;;15.20;99.90;;;;;;5049553;28;19920;-74
2022/09/30 06:36:35;;;;;;;0.85;0.30;;;15.20;99.90;;;;;;5074732;28;20033;-73
2022/09/30 06:39:04;;;;;;;0.95;0.32;;;15.20;99.90;;;;;;5048832;28;21373;-74
2022/09/30 06:41:30;;;;;;;2.20;0.45;;;15.20;99.90;;;;;;5058256;28;20142;-75
2022/09/30 06:43:56;;;;;;;1.48;0.40;;;15.10;99.90;;;;;;5060866;28;20033;-75
2022/09/30 06:46:24;;;;;;;1.90;0.40;;;15.10;99.90;;;;;;5060880;28;20140;-74
2022/09/30 06:48:54;;;;;;;3.60;0.47;;;14.90;99.90;;;;;;5070366;28;20438;-74
2022/09/30 06:51:20;;;;;;;3.08;0.40;;;14.90;99.90;;;;;;5049651;28;20659;-74
2022/09/30 06:53:50;;;;;;;2.65;0.88;;;15.00;99.90;;;;;;5059557;28;20146;-74
2022/09/30 06:56:17;;;;;;;4.57;0.60;;;15.00;99.90;;;;;;5060128;28;20033;-74
2022/09/30 06:58:44;;;;;;;2.00;0.60;;;15.10;99.90;;;;;;5047973;28;20712;-74
2022/09/30 07:01:12;;;;;;;3.97;0.77;;;15.20;99.90;;;;;;5050289;28;20054;-74
2022/09/30 07:03:38;;;;;;;1.08;0.32;;;15.30;99.90;;;;;;5058651;28;20761;-75
2022/09/30 07:06:05;;;;;;;1.85;0.60;;;15.40;99.90;;;;;;5043801;28;20033;-74
2022/09/30 07:08:32;;;;;;;2.28;0.40;;;15.60;99.90;;;;;;5056865;28;20043;-74
2022/09/30 07:11:10;;;;;;;0.77;0.35;;;15.80;99.90;;;;;;5042789;28;20988;-74
2022/09/30 07:13:37;;;;;;;2.92;0.80;;;15.90;99.90;;;;;;5069171;28;20377;-75
2022/09/30 07:16:03;;;;;;;1.27;0.40;;;16.00;99.90;;;;;;5062315;28;20037;-74
2022/09/30 07:18:28;;;;;;;3.05;1.08;;;16.00;99.90;;;;;;5059399;28;20436;-76
2022/09/30 07:20:56;;;;;;;6.97;0.77;;;16.00;99.90;;;;;;5063200;28;20128;-73
2022/09/30 07:23:24;;;;;;;3.47;1.27;;;15.90;99.90;;;;;;5061576;28;20036;-74
2022/09/30 07:25:55;;;;;;;1.73;0.50;;;16.00;99.90;;;;;;5061129;28;20029;-74
2022/09/30 07:28:26;;;;;;;1.77;0.40;;;16.00;99.90;;;;;;5060621;28;20063;-75
2022/09/30 07:30:55;;;;;;;2.15;0.52;;;16.00;99.90;;;;;;5058487;28;20070;-74
2022/09/30 07:33:22;;;;;;;2.88;0.50;;;16.00;99.90;;;;;;5058167;28;20048;-74
2022/09/30 07:35:55;;;;;;;4.65;0.80;;;16.00;99.90;;;;;;5061592;28;20128;-74
2022/09/30 07:38:24;;;;;;;2.42;0.40;;;16.20;99.90;;;;;;5060272;28;20114;-73
2022/09/30 07:41:02;;;;;;;3.58;0.47;;;16.20;99.90;;;;;;5062619;28;20059;-75
2022/09/30 07:43:33;;;;;;;2.42;0.60;;;16.20;99.90;;;;;;5059676;28;20037;-76
2022/09/30 07:46:08;;;;;;;2.17;0.60;;;16.10;99.90;;;;;;5053138;28;20048;-76
2022/09/30 07:51:04;;;;;;;3.30;0.70;;;16.20;99.90;;;;;;5065455;28;20041;-76
2022/09/30 07:53:30;;;;;;;2.38;0.47;;;16.20;99.90;;;;;;5064350;28;20039;-75
2022/09/30 07:55:56;;;;;;;3.13;0.50;;;16.20;99.90;;;;;;5067909;28;20133;-76
2022/09/30 07:58:23;;;;;;;3.08;0.73;;;16.20;99.90;;;;;;5062398;28;20032;-76
2022/09/30 08:00:49;;;;;;;0.98;0.40;;;16.10;99.90;;;;;;5055528;28;20036;-75
2022/09/30 08:03:15;;;;;;;9.77;3.90;;;16.20;99.90;;;;;;5060770;28;20053;-75
2022/09/30 08:05:44;;;;;;;2.65;0.52;;;16.30;99.90;;;;;;5062870;28;20032;-76
2022/09/30 08:08:14;;;;;;;3.45;0.60;;;16.20;99.90;;;;;;5057369;28;20033;-76
2022/09/30 08:10:40;;;;;;;3.83;0.85;;;16.30;99.90;;;;;;5073227;28;20408;-76
2022/09/30 08:13:08;;;;;;;1.73;0.50;;;16.40;99.90;;;;;;5050010;28;20047;-75
2022/09/30 08:15:33;;;;;;;2.40;0.50;;;16.40;99.90;;;;;;5057281;28;20544;-76
2022/09/30 08:17:59;;;;;;;3.65;0.82;;;16.50;99.90;;;;;;5059105;28;20037;-76
2022/09/30 08:20:26;;;;;;;7.10;0.75;;;17.80;99.90;;;;;;5058240;28;20112;-76
2022/09/30 08:22:55;;;;;;;1.83;0.77;;;19.90;99.90;;;;;;5053911;28;20104;-75
2022/09/30 08:25:26;;;;;;;4.47;0.73;;;21.10;99.10;;;;;;5021157;28;20514;-76
2022/09/30 08:27:53;;;;;;;3.92;0.93;;;22.00;97.60;;;;;;5057168;28;20063;-76
2022/09/30 08:30:19;;;;;;;3.38;0.90;;;22.40;96.80;;;;;;5040258;28;20036;-76
2022/09/30 08:32:45;;;;;;;4.47;0.93;;;22.60;96.70;;;;;;5053015;28;20037;-77
2022/09/30 08:35:11;;;;;;;3.50;1.02;;;23.10;95.70;;;;;;5063567;28;20530;-76
2022/09/30 08:37:37;;;;;;;3.08;1.08;;;23.80;95.30;;;;;;5047399;28;20178;-76
2022/09/30 08:40:03;;;;;;;2.50;1.00;;;24.70;94.60;;;;;;5057404;28;20563;-76
2022/09/30 08:42:53;;;;;;;3.95;1.20;;;25.40;93.70;;;;;;5059628;28;20489;-76
2022/09/30 08:45:40;;;;;;;4.90;1.95;;;25.60;93.00;;;;;;5065183;28;20099;-76
2022/09/30 08:48:28;;;;;;;3.17;1.00;;;25.20;93.20;;;;;;5055461;28;20052;-76
2022/09/30 08:51:23;;;;;;;3.63;1.35;;;26.10;92.70;;;;;;5038315;28;20041;-76
2022/09/30 08:53:51;;;;;;;3.00;1.42;;;26.10;92.40;;;;;;5056921;28;20052;-75
2022/09/30 08:56:23;;;;;;;7.45;1.42;;;26.20;92.20;;;;;;5066806;28;20028;-75
2022/09/30 08:58:58;;;;;;;3.38;1.50;;;26.60;91.80;;;;;;5058713;28;20603;-76
2022/09/30 09:01:31;;;;;;;2.63;1.08;;;26.30;91.60;;;;;;5062772;28;20041;-77
2022/09/30 09:03:59;;;;;;;2.67;1.17;;;26.70;92.00;;;;;;5061788;28;20037;-76
2022/09/30 09:06:32;;;;;;;4.75;1.25;;;26.00;91.70;;;;;;5056690;28;20029;-76
2022/09/30 09:09:26;;;;;;;2.50;1.27;;;26.00;91.80;;;;;;5055479;28;20052;-76
2022/09/30 09:12:06;;;;;;;2.10;1.20;;;26.20;91.60;;;;;;5053619;28;20071;-77
2022/09/30 09:14:38;;;;;;;3.28;1.05;;;26.10;91.50;;;;;;5056513;28;20055;-76
2022/09/30 09:17:57;;;;;;;1.77;0.77;;;26.10;91.30;;;;;;5056699;28;20033;-76
2022/09/30 09:20:32;;;;;;;4.18;2.05;;;26.40;91.20;;;;;;4978517;28;20676;-77
2022/09/30 09:23:01;;;;;;;2.55;0.90;;;26.40;91.30;;;;;;5044818;28;20035;-76
2022/09/30 09:25:27;;;;;;;4.30;1.10;;;26.70;90.80;;;;;;5052710;28;20615;-77
2022/09/30 09:28:00;;;;;;;4.13;0.93;;;26.90;90.90;;;;;;5057607;28;20032;-75
2022/09/30 09:30:34;;;;;;;2.75;0.93;;;27.30;90.50;;;;;;5067774;28;20048;-77
2022/09/30 09:33:16;;;;;;;3.40;1.35;;;27.30;90.20;;;;;;5049232;28;20047;-76
2022/09/30 09:35:47;;;;;;;3.90;1.95;;;25.60;90.70;;;;;;5054485;28;20036;-77
2022/09/30 09:38:24;;;;;;;7.03;1.17;;;24.90;91.30;;;;;;5053177;28;20044;-76
2022/09/30 09:40:59;;;;;;;3.03;0.82;;;25.00;91.20;;;;;;5070458;28;20033;-76
2022/09/30 09:43:59;;;;;;;3.42;1.13;;;24.10;91.50;;;;;;5055409;28;20032;-75
2022/09/30 09:46:25;;;;;;;7.03;1.25;;;22.60;92.50;;;;;;5052676;28;20044;-77
2022/09/30 09:49:16;;;;;;;4.65;1.35;;;22.40;93.30;;;;;;5058254;28;20053;-76
2022/09/30 09:52:05;;;;;;;23.55;2.03;;;22.70;93.40;;;;;;5039977;28;20116;-77
2022/09/30 09:54:35;;;;;;;4.50;0.90;;;22.10;93.40;;;;;;5042149;28;20040;-76
2022/09/30 09:57:13;;;;;;;2.75;0.70;;;22.40;93.40;;;;;;5050868;28;20044;-76
2022/09/30 09:59:58;;;;;;;2.47;0.73;;;22.50;93.00;;;;;;5035337;28;20441;-75
2022/09/30 10:02:26;;;;;;;4.03;0.85;;;23.00;92.50;;;;;;5046515;28;20119;-76
2022/09/30 10:05:00;;;;;;;3.40;0.73;;;23.30;92.30;;;;;;5053221;28;20045;-77
2022/09/30 10:07:28;;;;;;;2.50;0.98;;;23.70;92.20;;;;;;5067285;28;20051;-75
2022/09/30 10:10:17;;;;;;;1.75;0.60;;;23.90;90.70;;;;;;5047688;28;20060;-76
2022/09/30 10:12:44;;;;;;;2.42;1.35;;;24.20;90.50;;;;;;5066626;28;20119;-73
2022/09/30 10:15:19;;;;;;;2.60;0.70;;;23.90;89.50;;;;;;5044384;28;20126;-72
2022/09/30 10:17:53;;;;;;;3.13;0.70;;;23.50;90.40;;;;;;5067437;28;20040;-74
2022/09/30 10:20:28;;;;;;;2.75;0.93;;;23.90;90.70;;;;;;5045984;28;20047;-74
2022/09/30 10:23:18;;;;;;;4.55;0.77;;;24.00;90.60;;;;;;5055578;28;20041;-73
2022/09/30 10:26:14;;;;;;;2.85;0.70;;;24.70;89.90;;;;;;5044001;28;20029;-72
2022/09/30 10:28:44;;;;;;;2.78;0.98;;;25.20;89.00;;;;;;5026333;28;20607;-74
2022/09/30 10:31:40;;;;;;;3.63;0.95;;;25.80;87.90;;;;;;5047709;28;20491;-74
2022/09/30 10:34:26;;;;;;;4.65;1.40;;;26.10;86.60;;;;;;5052230;28;20123;-74
2022/09/30 10:36:52;;;;;;;6.45;1.15;;;26.30;86.40;;;;;;5057380;28;20037;-73
2022/09/30 10:39:23;;;;;;;5.63;1.23;;;26.70;85.40;;;;;;5055733;28;20049;-73
2022/09/30 10:41:58;;;;;;;2.88;0.82;;;27.00;84.80;;;;;;5051905;28;20048;-73
2022/09/30 10:44:24;;;;;;;1.23;0.57;;;26.80;83.50;;;;;;5057745;28;20048;-74
2022/09/30 10:46:52;;;;;;;1.85;0.82;;;26.60;81.40;;;;;;5057993;28;20029;-73
2022/09/30 10:49:29;;;;;;;2.65;0.73;;;26.70;81.30;;;;;;5051597;28;20086;-73
2022/09/30 10:51:57;;;;;;;4.20;1.58;;;25.90;84.20;;;;;;5056963;28;20055;-74
2022/09/30 10:54:44;;;;;;;3.85;0.90;;;26.50;84.80;;;;;;5058583;28;20059;-73
2022/09/30 10:57:30;;;;;;;5.78;2.05;;;26.80;83.80;;;;;;5058567;28;20454;-73
2022/09/30 11:00:12;;;;;;;4.00;0.93;;;25.70;83.50;;;;;;5062710;28;20980;-74
2022/09/30 11:02:48;;;;;;;3.88;1.13;;;25.60;84.20;;;;;;5041934;28;20671;-75
2022/09/30 11:05:18;;;;;;;9.35;1.63;;;25.30;87.10;;;;;;5057249;28;20041;-75
2022/09/30 11:07:58;;;;;;;5.22;1.85;;;24.40;88.90;;;;;;5074121;28;20032;-73
2022/09/30 11:10:48;;;;;;;5.82;1.88;;;25.70;88.10;;;;;;5059910;28;20044;-73
2022/09/30 11:13:42;;;;;;;9.82;1.85;;;26.80;87.20;;;;;;5058319;28;20547;-74
2022/09/30 11:16:07;;;;;;;6.05;2.30;;;26.70;88.30;;;;;;5059623;28;20520;-74
2022/09/30 11:19:01;;;;;;;6.57;1.80;;;26.70;89.40;;;;;;5060698;28;20041;-73
2022/09/30 11:21:36;;;;;;;5.65;1.90;;;25.80;89.40;;;;;;5058622;28;20059;-74
2022/09/30 11:24:16;;;;;;;3.78;1.50;;;26.40;89.80;;;;;;5057801;28;20086;-74
2022/09/30 11:27:00;;;;;;;6.30;1.63;;;26.30;88.70;;;;;;5055589;28;20544;-74
2022/09/30 11:30:14;;;;;;;8.73;2.08;;;26.90;88.20;;;;;;5071403;28;20041;-74
2022/09/30 11:32:52;;;;;;;5.70;1.85;;;26.50;87.50;;;;;;5051919;28;20032;-75
2022/09/30 11:35:40;;;;;;;4.72;2.03;;;26.50;87.50;;;;;;5056839;28;20567;-74
2022/09/30 11:38:54;;;;;;;7.75;1.92;;;26.70;87.50;;;;;;5056178;28;20075;-73
2022/09/30 11:41:41;;;;;;;4.82;1.92;;;25.90;88.90;;;;;;5050904;28;20043;-73
2022/09/30 11:44:25;;;;;;;7.20;2.15;;;27.00;89.40;;;;;;5058992;28;20040;-73
2022/09/30 11:47:00;;;;;;;;;;;26.30;90.30;;;;;;5057688;28;20060;-74
2022/09/30 11:50:07;;;;;;;4.38;2.00;;;26.80;90.40;;;;;;5058429;28;20671;-74
2022/09/30 11:52:57;;;;;;;7.82;1.95;;;27.80;89.60;;;;;;5047813;28;20037;-75
2022/09/30 11:55:33;;;;;;;11.32;2.53;;;26.70;90.40;;;;;;5050460;28;20104;-73
2022/09/30 11:58:07;;;;;;;5.75;2.10;;;27.00;90.40;;;;;;5073586;28;20060;-74
2022/09/30 12:00:41;;;;;;;7.07;2.45;;;26.70;90.20;;;;;;5034664;28;20084;-72
2022/09/30 12:03:34;;;;;;;6.05;2.00;;;25.40;90.90;;;;;;5041024;28;20036;-74
2022/09/30 12:06:14;;;;;;;5.10;1.85;;;25.90;91.40;;;;;;5054743;28;20122;-74
2022/09/30 12:08:48;;;;;;;5.25;1.73;;;25.30;91.30;;;;;;5057736;28;20506;-74
2022/09/30 12:11:19;;;;;;;6.22;2.78;;;26.20;91.40;;;;;;5060504;28;20060;-74
2022/09/30 12:13:55;;;;;;;5.95;1.70;;;26.80;91.10;;;;;;5060084;28;20578;-77
2022/09/30 12:16:25;;;;;;;7.60;2.28;;;26.20;90.80;;;;;;5066160;28;20043;-73
2022/09/30 12:18:59;;;;;;;5.20;2.40;;;25.50;91.30;;;;;;5061379;28;20043;-73
2022/09/30 12:21:42;;;;;;;4.57;2.00;;;25.20;92.00;;;;;;5052643;28;21007;-73
2022/09/30 12:24:19;;;;;;;4.20;1.63;;;23.40;93.20;;;;;;5051114;28;20039;-72
2022/09/30 12:26:46;;;;;;;6.72;2.10;;;23.20;93.90;;;;;;5053493;28;20037;-73
2022/09/30 12:32:10;;;;;;;5.50;1.77;;;24.70;93.60;;;;;;5054719;28;20051;-73
2022/09/30 12:35:00;;;;;;;7.57;2.50;;;24.70;93.00;;;;;;5055804;28;20033;-74
2022/09/30 12:37:52;;;;;;;3.85;1.55;;;25.30;93.20;;;;;;5057141;28;20528;-75
2022/09/30 12:40:21;;;;;;;6.75;2.35;;;25.60;92.30;;;;;;5051879;28;20120;-73
2022/09/30 12:43:32;;;;;;;3.75;1.73;;;25.10;92.70;;;;;;5064924;28;20040;-74
2022/09/30 12:46:07;;;;;;;6.53;1.95;;;25.30;92.40;;;;;;5004198;28;20038;-73
2022/09/30 12:48:42;;;;;;;4.25;1.85;;;23.90;92.50;;;;;;5058363;28;20100;-73
2022/09/30 12:51:08;;;;;;;3.72;1.30;;;24.70;92.50;;;;;;5068989;28;20063;-73
2022/09/30 12:53:38;;;;;;;6.32;2.22;;;25.70;91.60;;;;;;5070778;28;20037;-73
2022/09/30 12:56:08;;;;;;;4.85;1.42;;;24.50;92.10;;;;;;5049094;28;20124;-73
2022/09/30 12:58:41;;;;;;;4.38;1.60;;;24.70;92.10;;;;;;5056963;28;20037;-72
2022/09/30 13:01:34;;;;;;;5.88;2.20;;;24.80;92.10;;;;;;5057655;28;20040;-73
2022/09/30 13:04:00;;;;;;;6.65;1.55;;;25.50;91.70;;;;;;5074206;28;20052;-73
2022/09/30 13:06:45;;;;;;;8.45;1.70;;;22.30;93.90;;;;;;5062901;28;20061;-73
2022/09/30 13:09:30;;;;;;;4.68;1.35;;;22.10;94.90;;;;;;5059892;28;20094;-72
2022/09/30 13:11:58;;;;;;;5.35;1.77;;;22.10;94.80;;;;;;5057103;28;20048;-74
2022/09/30 13:14:38;;;;;;;5.60;1.20;;;21.30;95.50;;;;;;5044038;28;20113;-73
2022/09/30 13:17:07;;;;;;;7.57;2.40;;;22.70;94.60;;;;;;5049794;28;20090;-73
2022/09/30 13:19:47;;;;;;;5.25;1.55;;;22.70;94.40;;;;;;5065684;28;20028;-73
2022/09/30 13:22:28;;;;;;;6.60;1.20;;;22.80;94.50;;;;;;5061846;28;20046;-72
2022/09/30 13:24:56;;;;;;;4.88;1.38;;;23.50;93.80;;;;;;5061712;28;20468;-73
2022/09/30 13:27:40;;;;;;;4.13;1.35;;;23.70;93.40;;;;;;5070791;28;20101;-72
2022/09/30 13:30:13;;;;;;;5.97;1.30;;;24.40;92.90;;;;;;5053698;28;20850;-75
2022/09/30 13:33:01;;;;;;;7.03;1.52;;;24.70;92.60;;;;;;5056946;28;20028;-73
2022/09/30 13:35:49;;;;;;;5.07;1.40;;;24.60;92.30;;;;;;5053457;28;20086;-73